Time,TemperatureF,DewpointF,PressureIn,WindDirection,WindDirectionDegrees,WindSpeedMPH,WindSpeedGustMPH,Humidity,HourlyPrecipIn,Conditions,Clouds,dailyrainin,SoftwareType,DateUTC
2013-07-14 00:04:00,49.8,44.9,30.32,WSW,245,0.0,0.0,83,0.00,CLR,,0.00,WeatherDisplay:10.37,2013-07-13 14:04:00,
2013-07-14 00:09:00,49.8,44.9,30.32,South,189,0.0,0.0,83,0.00,CLR,,0.00,WeatherDisplay:10.37,2013-07-13 14:09:00,
2013-07-14 00:19:00,49.8,45.2,30.32,South,180,0.0,0.0,84,0.00,CLR,,0.00,WeatherDisplay:10.37,2013-07-13 14:19:00,
2013-07-14 00:24:00,49.6,45.0,30.32,South,180,0.0,0.0,84,0.00,CLR,,0.00,WeatherDisplay:10.37,2013-07-13 14:24:00,
2013-07-14 00:29:00,49.6,45.0,30.32,South,180,0.0,0.0,84,0.00,CLR,,0.00,WeatherDisplay:10.37,2013-07-13 14:29:00,
2013-07-14 00:34:00,49.6,45.0,30.32,South,181,0.0,0.0,84,0.00,CLR,,0.00,WeatherDisplay:10.37,2013-07-13 14:34:00,
2013-07-14 00:39:00,49.3,45.0,30.31,South,171,0.0,0.0,85,0.00,CLR,,0.00,WeatherDisplay:10.37,2013-07-13 14:39:00,
2013-07-14 00:44:00,49.3,44.6,30.31,South,177,0.0,0.0,84,0.00,CLR,,0.00,WeatherDisplay:10.37,2013-07-13 14:44:00,
2013-07-14 00:49:00,49.3,44.6,30.31,South,169,0.0,0.0,84,0.00,CLR,,0.00,WeatherDisplay:10.37,2013-07-13 14:49:00,
2013-07-14 00:54:00,49.3,45.0,30.31,SSE,158,0.0,0.0,85,0.00,CLR,,0.00,WeatherDisplay:10.37,2013-07-13 14:54:00,
2013-07-14 00:59:00,49.3,44.6,30.31,South,184,0.0,0.0,84,0.00,CLR,,0.00,WeatherDisplay:10.37,2013-07-13 14:59:00,
2013-07-14 01:04:00,49.2,44.6,30.31,SSW,206,0.0,0.0,84,0.00,CLR,,0.00,WeatherDisplay:10.37,2013-07-13 15:04:00,
2013-07-14 01:09:00,49.3,45.0,30.31,SSW,204,0.0,0.0,85,0.00,CLR,,0.00,WeatherDisplay:10.37,2013-07-13 15:09:00,
2013-07-14 01:19:00,49.1,44.8,30.31,SSW,204,0.0,0.0,85,0.00,CLR,,0.00,WeatherDisplay:10.37,2013-07-13 15:19:00,
2013-07-14 01:24:00,49.1,44.8,30.31,SSW,196,0.0,0.0,85,0.00,CLR,,0.00,WeatherDisplay:10.37,2013-07-13 15:24:00,
2013-07-14 01:29:00,48.9,44.3,30.31,South,185,0.0,0.0,84,0.00,CLR,,0.00,WeatherDisplay:10.37,2013-07-13 15:29:00,
2013-07-14 01:34:00,48.9,44.6,30.31,South,180,0.0,0.0,85,0.00,CLR,,0.00,WeatherDisplay:10.37,2013-07-13 15:34:00,
2013-07-14 01:39:00,48.9,44.6,30.31,South,180,0.0,0.0,85,0.00,CLR,,0.00,WeatherDisplay:10.37,2013-07-13 15:39:00,
2013-07-14 01:44:00,48.7,44.1,30.31,South,180,0.0,0.0,84,0.00,CLR,,0.00,WeatherDisplay:10.37,2013-07-13 15:44:00,
2013-07-14 01:49:00,48.7,44.1,30.31,South,190,0.0,0.0,84,0.00,CLR,,0.00,WeatherDisplay:10.37,2013-07-13 15:49:00,
2013-07-14 01:54:00,48.7,44.1,30.31,SSE,167,0.0,0.0,84,0.00,CLR,,0.00,WeatherDisplay:10.37,2013-07-13 15:54:00,
2013-07-14 01:59:00,48.4,43.8,30.30,SE,136,0.0,0.0,84,0.00,CLR,,0.00,WeatherDisplay:10.37,2013-07-13 15:59:00,
2013-07-14 02:04:00,48.5,44.2,30.30,SSE,151,0.0,0.0,85,0.00,CLR,,0.00,WeatherDisplay:10.37,2013-07-13 16:04:00,
2013-07-14 02:09:00,48.4,43.8,30.30,SSE,147,0.0,0.0,84,0.00,CLR,,0.00,WeatherDisplay:10.37,2013-07-13 16:09:00,
2013-07-14 02:14:00,48.4,43.8,30.30,SE,135,0.0,0.0,84,0.00,CLR,,0.00,WeatherDisplay:10.37,2013-07-13 16:14:00,
2013-07-14 02:19:00,48.2,43.6,30.30,SE,140,0.0,0.0,84,0.00,CLR,,0.00,WeatherDisplay:10.37,2013-07-13 16:19:00,
2013-07-14 02:24:00,48.2,43.9,30.30,SSE,151,0.0,0.0,85,0.00,CLR,,0.00,WeatherDisplay:10.37,2013-07-13 16:24:00,
2013-07-14 02:29:00,48.2,43.9,30.30,SSE,158,0.0,0.0,85,0.00,CLR,,0.00,WeatherDisplay:10.37,2013-07-13 16:29:00,
2013-07-14 02:34:00,48.2,43.6,30.30,SSE,158,0.0,0.0,84,0.00,CLR,,0.00,WeatherDisplay:10.37,2013-07-13 16:34:00,
2013-07-14 02:39:00,48.0,43.4,30.30,SSE,158,0.0,0.0,84,0.00,CLR,,0.00,WeatherDisplay:10.37,2013-07-13 16:39:00,
2013-07-14 02:44:00,47.8,43.5,30.30,SSE,158,0.0,0.0,85,0.00,CLR,,0.00,WeatherDisplay:10.37,2013-07-13 16:44:00,
2013-07-14 02:49:00,47.9,43.7,30.30,SSE,158,0.0,0.0,85,0.00,CLR,,0.00,WeatherDisplay:10.37,2013-07-13 16:49:00,
2013-07-14 02:54:00,48.0,43.7,30.30,SSE,158,0.0,0.0,85,0.00,CLR,,0.00,WeatherDisplay:10.37,2013-07-13 16:54:00,
2013-07-14 02:59:00,47.8,43.5,30.30,SSE,158,0.0,0.0,85,0.00,CLR,,0.00,WeatherDisplay:10.37,2013-07-13 16:59:00,
2013-07-14 03:04:00,47.8,43.5,30.30,SSE,158,0.0,0.0,85,0.00,CLR,,0.00,WeatherDisplay:10.37,2013-07-13 17:04:00,
2013-07-14 03:09:00,47.7,43.4,30.30,SSE,158,0.0,0.0,85,0.00,CLR,,0.00,WeatherDisplay:10.37,2013-07-13 17:09:00,
2013-07-14 03:14:00,47.5,43.2,30.30,SSE,158,0.0,0.0,85,0.00,CLR,,0.00,WeatherDisplay:10.37,2013-07-13 17:14:00,
2013-07-14 03:19:00,47.5,43.2,30.30,SSE,154,0.0,0.0,85,0.00,CLR,,0.00,WeatherDisplay:10.37,2013-07-13 17:19:00,
2013-07-14 03:24:00,47.7,43.4,30.29,SE,128,0.0,0.0,85,0.00,CLR,,0.00,WeatherDisplay:10.37,2013-07-13 17:24:00,
2013-07-14 03:29:00,47.7,43.4,30.29,ESE,112,0.0,0.0,85,0.00,CLR,,0.00,WeatherDisplay:10.37,2013-07-13 17:29:00,
2013-07-14 03:39:00,47.5,43.2,30.29,SW,218,1.0,2.0,85,0.00,CLR,,0.00,WeatherDisplay:10.37,2013-07-13 17:39:00,
2013-07-14 03:44:00,47.2,42.9,30.30,WSW,252,0.0,2.0,85,0.00,CLR,,0.00,WeatherDisplay:10.37,2013-07-13 17:44:00,
2013-07-14 03:49:00,47.3,43.0,30.30,West,270,0.0,0.0,85,0.00,CLR,,0.00,WeatherDisplay:10.37,2013-07-13 17:49:00,
2013-07-14 03:54:00,47.3,43.0,30.30,NW,317,0.0,0.0,85,0.00,CLR,,0.00,WeatherDisplay:10.37,2013-07-13 17:54:00,
2013-07-14 03:59:00,47.3,43.0,30.30,ENE,74,0.0,0.0,85,0.00,CLR,,0.00,WeatherDisplay:10.37,2013-07-13 17:59:00,
2013-07-14 04:04:00,47.5,43.2,30.30,East,82,0.0,0.0,85,0.00,CLR,,0.00,WeatherDisplay:10.37,2013-07-13 18:04:00,
2013-07-14 04:09:00,47.5,43.2,30.30,ENE,71,0.0,0.0,85,0.00,CLR,,0.00,WeatherDisplay:10.37,2013-07-13 18:09:00,
2013-07-14 04:14:00,47.5,43.2,30.29,ENE,77,0.0,0.0,85,0.00,CLR,,0.00,WeatherDisplay:10.37,2013-07-13 18:14:00,
2013-07-14 04:19:00,47.4,43.1,30.29,East,87,0.0,0.0,85,0.00,CLR,,0.00,WeatherDisplay:10.37,2013-07-13 18:19:00,
2013-07-14 04:24:00,47.3,43.0,30.30,East,91,0.0,0.0,85,0.00,CLR,,0.00,WeatherDisplay:10.37,2013-07-13 18:24:00,
2013-07-14 04:29:00,47.1,42.5,30.29,ESE,104,0.0,0.0,84,0.00,CLR,,0.00,WeatherDisplay:10.37,2013-07-13 18:29:00,
2013-07-14 04:34:00,46.9,42.4,30.29,SSE,152,0.0,0.0,84,0.00,CLR,,0.00,WeatherDisplay:10.37,2013-07-13 18:34:00,
2013-07-14 04:39:00,46.8,42.5,30.29,South,180,0.0,0.0,85,0.00,CLR,,0.00,WeatherDisplay:10.37,2013-07-13 18:39:00,
2013-07-14 04:44:00,46.6,42.3,30.30,South,180,0.0,0.0,85,0.00,CLR,,0.00,WeatherDisplay:10.37,2013-07-13 18:44:00,
2013-07-14 04:49:00,46.6,42.3,30.30,South,180,0.0,0.0,85,0.00,CLR,,0.00,WeatherDisplay:10.37,2013-07-13 18:49:00,
2013-07-14 04:54:00,46.6,42.3,30.29,South,180,0.0,0.0,85,0.00,CLR,,0.00,WeatherDisplay:10.37,2013-07-13 18:54:00,
2013-07-14 04:59:00,46.6,42.3,30.29,South,180,0.0,0.0,85,0.00,CLR,,0.00,WeatherDisplay:10.37,2013-07-13 18:59:00,
2013-07-14 05:04:00,46.8,42.5,30.30,South,180,0.0,0.0,85,0.00,CLR,,0.00,WeatherDisplay:10.37,2013-07-13 19:04:00,
2013-07-14 05:09:00,46.6,42.3,30.29,South,180,0.0,0.0,85,0.00,CLR,,0.00,WeatherDisplay:10.37,2013-07-13 19:09:00,
2013-07-14 05:14:00,46.6,42.3,30.29,South,180,0.0,0.0,85,0.00,CLR,,0.00,WeatherDisplay:10.37,2013-07-13 19:14:00,
2013-07-14 05:19:00,46.6,42.3,30.29,South,180,0.0,0.0,85,0.00,CLR,,0.00,WeatherDisplay:10.37,2013-07-13 19:19:00,
2013-07-14 05:24:00,46.6,42.3,30.29,South,180,0.0,0.0,85,0.00,CLR,,0.00,WeatherDisplay:10.37,2013-07-13 19:24:00,
2013-07-14 05:29:00,46.2,42.0,30.30,South,180,0.0,0.0,85,0.00,CLR,,0.00,WeatherDisplay:10.37,2013-07-13 19:29:00,
2013-07-14 05:34:00,46.2,42.0,30.30,South,180,0.0,0.0,85,0.00,CLR,,0.00,WeatherDisplay:10.37,2013-07-13 19:34:00,
2013-07-14 05:39:00,46.2,42.0,30.30,South,180,0.0,0.0,85,0.00,CLR,,0.00,WeatherDisplay:10.37,2013-07-13 19:39:00,
2013-07-14 05:44:00,46.2,42.0,30.30,South,180,0.0,0.0,85,0.00,CLR,,0.00,WeatherDisplay:10.37,2013-07-13 19:44:00,
2013-07-14 05:49:00,46.2,42.0,30.30,South,180,0.0,0.0,85,0.00,CLR,,0.00,WeatherDisplay:10.37,2013-07-13 19:49:00,
2013-07-14 05:54:00,46.2,42.0,30.30,South,180,0.0,0.0,85,0.00,CLR,,0.00,WeatherDisplay:10.37,2013-07-13 19:54:00,
2013-07-14 05:59:00,46.2,42.0,30.31,South,180,0.0,0.0,85,0.00,CLR,,0.00,WeatherDisplay:10.37,2013-07-13 19:59:00,
2013-07-14 06:04:00,46.2,42.0,30.31,South,181,0.0,0.0,85,0.00,CLR,,0.00,WeatherDisplay:10.37,2013-07-13 20:04:00,
2013-07-14 06:09:00,46.0,41.8,30.31,South,180,0.0,0.0,85,0.00,CLR,,0.00,WeatherDisplay:10.37,2013-07-13 20:09:00,
2013-07-14 06:19:00,45.9,41.4,30.31,South,180,0.0,0.0,84,0.00,CLR,,0.00,WeatherDisplay:10.37,2013-07-13 20:19:00,
2013-07-14 06:24:00,45.7,41.1,30.31,South,182,0.0,0.0,84,0.00,CLR,,0.00,WeatherDisplay:10.37,2013-07-13 20:24:00,
2013-07-14 06:29:00,45.7,41.1,30.31,South,182,0.0,0.0,84,0.00,CLR,,0.00,WeatherDisplay:10.37,2013-07-13 20:29:00,
2013-07-14 06:34:00,45.5,40.9,30.31,South,180,0.0,0.0,84,0.00,CLR,,0.00,WeatherDisplay:10.37,2013-07-13 20:34:00,
2013-07-14 06:39:00,45.5,40.9,30.31,South,180,0.0,0.0,84,0.00,CLR,,0.00,WeatherDisplay:10.37,2013-07-13 20:39:00,
2013-07-14 06:44:00,45.5,40.9,30.32,South,180,0.0,0.0,84,0.00,CLR,,0.00,WeatherDisplay:10.37,2013-07-13 20:44:00,
2013-07-14 06:49:00,45.3,40.8,30.32,South,180,0.0,0.0,84,0.00,CLR,,0.00,WeatherDisplay:10.37,2013-07-13 20:49:00,
2013-07-14 06:59:00,45.5,40.9,30.32,South,180,0.0,0.0,84,0.00,CLR,,0.00,WeatherDisplay:10.37,2013-07-13 20:59:00,
2013-07-14 07:04:00,45.3,40.8,30.32,South,180,0.0,0.0,84,0.00,CLR,,0.00,WeatherDisplay:10.37,2013-07-13 21:04:00,
2013-07-14 07:09:00,45.3,40.8,30.32,South,181,0.0,0.0,84,0.00,CLR,,0.00,WeatherDisplay:10.37,2013-07-13 21:09:00,
2013-07-14 07:14:00,45.3,41.1,30.32,SSW,195,0.0,0.0,85,0.00,CLR,,0.00,WeatherDisplay:10.37,2013-07-13 21:14:00,
2013-07-14 07:19:00,45.3,41.1,30.32,South,186,0.0,0.0,85,0.00,CLR,,0.00,WeatherDisplay:10.37,2013-07-13 21:19:00,
2013-07-14 07:24:00,45.3,41.1,30.32,SSE,162,0.0,0.0,85,0.00,CLR,,0.00,WeatherDisplay:10.37,2013-07-13 21:24:00,
2013-07-14 07:29:00,45.4,41.1,30.32,SSE,158,0.0,0.0,85,0.00,CLR,,0.00,WeatherDisplay:10.37,2013-07-13 21:29:00,
2013-07-14 07:34:00,45.3,41.1,30.32,South,188,0.0,0.0,85,0.00,CLR,,0.00,WeatherDisplay:10.37,2013-07-13 21:34:00,
2013-07-14 07:39:00,45.5,41.3,30.32,WSW,257,0.0,0.0,85,0.00,CLR,,0.00,WeatherDisplay:10.37,2013-07-13 21:39:00,
2013-07-14 07:44:00,45.7,41.4,30.32,West,278,0.0,0.0,85,0.00,CLR,,0.00,WeatherDisplay:10.37,2013-07-13 21:44:00,
2013-07-14 07:49:00,45.7,41.4,30.32,West,261,0.0,0.0,85,0.00,CLR,,0.00,WeatherDisplay:10.37,2013-07-13 21:49:00,
2013-07-14 07:54:00,45.5,41.3,30.32,SSW,207,0.0,0.0,85,0.00,CLR,,0.00,WeatherDisplay:10.37,2013-07-13 21:54:00,
2013-07-14 07:59:00,45.5,41.6,30.33,South,186,0.0,0.0,86,0.00,CLR,,0.00,WeatherDisplay:10.37,2013-07-13 21:59:00,
2013-07-14 08:04:00,45.7,41.7,30.33,SSE,167,0.0,0.0,86,0.00,CLR,,0.00,WeatherDisplay:10.37,2013-07-13 22:04:00,
2013-07-14 08:09:00,45.9,41.9,30.33,ESE,104,0.0,0.0,86,0.00,CLR,,0.00,WeatherDisplay:10.37,2013-07-13 22:09:00,
2013-07-14 08:14:00,46.0,42.1,30.33,East,87,0.0,0.0,86,0.00,CLR,,0.00,WeatherDisplay:10.37,2013-07-13 22:14:00,
2013-07-14 08:19:00,46.0,42.4,30.33,East,94,0.0,0.0,87,0.00,CLR,,0.00,WeatherDisplay:10.37,2013-07-13 22:19:00,
2013-07-14 08:24:00,46.2,42.6,30.33,SSE,160,0.0,0.0,87,0.00,CLR,,0.00,WeatherDisplay:10.37,2013-07-13 22:24:00,
2013-07-14 08:29:00,46.3,42.7,30.33,SSE,165,0.0,0.0,87,0.00,CLR,,0.00,WeatherDisplay:10.37,2013-07-13 22:29:00,
2013-07-14 08:34:00,46.6,42.9,30.33,South,175,0.0,0.0,87,0.00,CLR,,0.00,WeatherDisplay:10.37,2013-07-13 22:34:00,
2013-07-14 08:39:00,46.8,43.1,30.33,SSW,192,0.0,0.0,87,0.00,CLR,,0.00,WeatherDisplay:10.37,2013-07-13 22:39:00,
2013-07-14 08:44:00,47.1,43.7,30.33,SW,220,0.0,0.0,88,0.00,CLR,,0.00,WeatherDisplay:10.37,2013-07-13 22:44:00,
2013-07-14 08:49:00,47.5,44.1,30.33,WSW,237,0.0,0.0,88,0.00,CLR,,0.00,WeatherDisplay:10.37,2013-07-13 22:49:00,
2013-07-14 08:54:00,47.8,44.5,30.33,West,269,0.0,0.0,88,0.00,CLR,,0.00,WeatherDisplay:10.37,2013-07-13 22:54:00,
2013-07-14 08:59:00,48.2,44.8,30.33,SW,222,0.0,0.0,88,0.00,CLR,,0.00,WeatherDisplay:10.37,2013-07-13 22:59:00,
2013-07-14 09:04:00,48.7,45.3,30.33,South,169,0.0,0.0,88,0.00,CLR,,0.00,WeatherDisplay:10.37,2013-07-13 23:04:00,
2013-07-14 09:14:00,49.3,46.2,30.34,South,172,0.0,0.0,89,0.00,CLR,,0.00,WeatherDisplay:10.37,2013-07-13 23:14:00,
2013-07-14 09:19:00,49.6,46.5,30.34,SSE,158,0.0,0.0,89,0.00,CLR,,0.00,WeatherDisplay:10.37,2013-07-13 23:19:00,
2013-07-14 09:24:00,49.8,46.7,30.33,SSE,156,0.0,0.0,89,0.00,CLR,,0.00,WeatherDisplay:10.37,2013-07-13 23:24:00,
2013-07-14 09:29:00,50.2,47.1,30.34,SE,145,0.0,0.0,89,0.00,CLR,,0.00,WeatherDisplay:10.37,2013-07-13 23:29:00,
2013-07-14 09:34:00,50.7,47.6,30.34,SE,127,0.0,0.0,89,0.00,CLR,,0.00,WeatherDisplay:10.37,2013-07-13 23:34:00,
2013-07-14 09:39:00,51.0,48.1,30.34,SE,126,0.0,0.0,90,0.00,CLR,,0.00,WeatherDisplay:10.37,2013-07-13 23:39:00,
2013-07-14 09:44:00,51.4,48.6,30.34,SSE,160,0.0,0.0,90,0.00,CLR,,0.00,WeatherDisplay:10.37,2013-07-13 23:44:00,
2013-07-14 09:49:00,51.6,48.8,30.33,South,171,0.0,1.0,90,0.00,CLR,,0.00,WeatherDisplay:10.37,2013-07-13 23:49:00,
2013-07-14 09:54:00,52.0,49.2,30.34,SSE,161,0.0,1.0,90,0.00,CLR,,0.00,WeatherDisplay:10.37,2013-07-13 23:54:00,
2013-07-14 09:59:00,52.4,49.5,30.34,SSE,154,0.0,1.0,90,0.00,CLR,,0.00,WeatherDisplay:10.37,2013-07-13 23:59:00,
2013-07-14 10:04:00,52.7,49.8,30.34,ENE,70,0.0,0.0,90,0.00,CLR,,0.00,WeatherDisplay:10.37,2013-07-14 00:04:00,
2013-07-14 10:09:00,52.9,50.1,30.33,ENE,70,0.0,1.0,90,0.00,CLR,,0.00,WeatherDisplay:10.37,2013-07-14 00:09:00,
2013-07-14 10:14:00,53.2,50.4,30.33,SE,126,1.0,2.0,90,0.00,CLR,,0.00,WeatherDisplay:10.37,2013-07-14 00:14:00,
2013-07-14 10:19:00,53.4,50.6,30.33,SE,139,2.0,7.0,90,0.00,CLR,,0.00,WeatherDisplay:10.37,2013-07-14 00:19:00,
2013-07-14 10:24:00,53.9,51.1,30.33,SE,135,1.0,2.0,90,0.00,CLR,,0.00,WeatherDisplay:10.37,2013-07-14 00:24:00,
2013-07-14 10:29:00,54.3,51.4,30.33,South,169,0.0,7.0,90,0.00,CLR,,0.00,WeatherDisplay:10.37,2013-07-14 00:29:00,
2013-07-14 10:34:00,54.5,51.6,30.33,SSE,167,1.0,2.0,90,0.00,CLR,,0.00,WeatherDisplay:10.37,2013-07-14 00:34:00,
2013-07-14 10:39:00,54.7,51.8,30.33,SE,125,0.0,2.0,90,0.00,CLR,,0.00,WeatherDisplay:10.37,2013-07-14 00:39:00,
2013-07-14 10:44:00,55.0,52.2,30.33,ESE,123,1.0,2.0,90,0.00,CLR,,0.00,WeatherDisplay:10.37,2013-07-14 00:44:00,
2013-07-14 10:49:00,55.2,52.3,30.33,South,182,0.0,7.0,90,0.00,CLR,,0.00,WeatherDisplay:10.37,2013-07-14 00:49:00,
2013-07-14 10:54:00,55.6,52.4,30.32,South,189,1.0,2.0,89,0.00,CLR,,0.00,WeatherDisplay:10.37,2013-07-14 00:54:00,
2013-07-14 10:59:00,55.8,52.3,30.32,ESE,123,1.0,2.0,88,0.00,CLR,,0.00,WeatherDisplay:10.37,2013-07-14 00:59:00,
2013-07-14 11:04:00,55.9,52.4,30.32,SE,134,1.0,14.0,88,0.00,CLR,,0.00,WeatherDisplay:10.37,2013-07-14 01:04:00,
2013-07-14 11:09:00,56.4,52.6,30.32,SSE,154,0.0,1.0,87,0.00,CLR,,0.00,WeatherDisplay:10.37,2013-07-14 01:09:00,
2013-07-14 11:14:00,56.8,52.7,30.32,SSW,197,2.0,14.0,86,0.00,CLR,,0.00,WeatherDisplay:10.37,2013-07-14 01:14:00,
2013-07-14 11:19:00,57.0,52.9,30.32,South,171,1.0,3.0,86,0.00,CLR,,0.00,WeatherDisplay:10.37,2013-07-14 01:19:00,
2013-07-14 11:24:00,57.1,52.7,30.32,SSE,164,1.0,2.0,85,0.00,CLR,,0.00,WeatherDisplay:10.37,2013-07-14 01:24:00,
2013-07-14 11:29:00,57.4,52.9,30.32,SE,131,1.0,5.0,85,0.00,CLR,,0.00,WeatherDisplay:10.37,2013-07-14 01:29:00,
2013-07-14 11:34:00,57.7,52.9,30.32,ESE,119,1.0,5.0,84,0.00,CLR,,0.00,WeatherDisplay:10.37,2013-07-14 01:34:00,
2013-07-14 11:39:00,58.4,53.3,30.32,East,96,2.0,5.0,83,0.00,CLR,,0.00,WeatherDisplay:10.37,2013-07-14 01:39:00,
2013-07-14 11:44:00,58.4,52.6,30.31,East,88,2.0,4.0,81,0.00,CLR,,0.00,WeatherDisplay:10.37,2013-07-14 01:44:00,
2013-07-14 11:49:00,58.3,52.1,30.31,East,82,1.0,6.0,80,0.00,CLR,,0.00,WeatherDisplay:10.37,2013-07-14 01:49:00,
2013-07-14 11:54:00,58.6,52.5,30.31,ENE,71,0.0,6.0,80,0.00,CLR,,0.00,WeatherDisplay:10.37,2013-07-14 01:54:00,
2013-07-14 11:59:00,58.8,52.7,30.31,ENE,58,1.0,4.0,80,0.00,CLR,,0.00,WeatherDisplay:10.37,2013-07-14 01:59:00,
2013-07-14 12:04:00,59.5,52.7,30.30,NE,46,2.0,5.0,78,0.00,CLR,,0.00,WeatherDisplay:10.37,2013-07-14 02:04:00,
2013-07-14 12:09:00,59.9,52.7,30.30,NNE,20,1.0,5.0,77,0.00,CLR,,0.00,WeatherDisplay:10.37,2013-07-14 02:09:00,
2013-07-14 12:14:00,60.1,52.6,30.30,NNE,16,3.0,6.0,76,0.00,CLR,,0.00,WeatherDisplay:10.37,2013-07-14 02:14:00,
2013-07-14 12:19:00,60.4,52.5,30.30,NNE,22,1.0,4.0,75,0.00,CLR,,0.00,WeatherDisplay:10.37,2013-07-14 02:19:00,
2013-07-14 12:24:00,60.2,52.2,30.30,ENE,71,1.0,7.0,75,0.00,CLR,,0.00,WeatherDisplay:10.37,2013-07-14 02:24:00,
2013-07-14 12:29:00,60.4,52.1,30.29,NE,52,2.0,8.0,74,0.00,CLR,,0.00,WeatherDisplay:10.37,2013-07-14 02:29:00,
2013-07-14 12:34:00,60.6,52.3,30.29,NE,47,2.0,6.0,74,0.00,CLR,,0.00,WeatherDisplay:10.37,2013-07-14 02:34:00,
2013-07-14 12:39:00,60.6,51.9,30.29,East,82,5.0,7.0,73,0.00,CLR,,0.00,WeatherDisplay:10.37,2013-07-14 02:39:00,
2013-07-14 12:44:00,60.6,51.9,30.29,ENE,62,3.0,5.0,73,0.00,CLR,,0.00,WeatherDisplay:10.37,2013-07-14 02:44:00,
2013-07-14 12:49:00,60.6,51.5,30.29,NNE,17,2.0,5.0,72,0.00,CLR,,0.00,WeatherDisplay:10.37,2013-07-14 02:49:00,
2013-07-14 12:54:00,61.0,51.5,30.28,North,0,2.0,6.0,71,0.00,CLR,,0.00,WeatherDisplay:10.37,2013-07-14 02:54:00,
2013-07-14 12:59:00,61.3,51.9,30.28,North,6,3.0,6.0,71,0.00,CLR,,0.00,WeatherDisplay:10.37,2013-07-14 02:59:00,
2013-07-14 13:04:00,61.3,51.5,30.28,NE,47,2.0,2.0,70,0.00,CLR,,0.00,WeatherDisplay:10.37,2013-07-14 03:04:00,
2013-07-14 13:09:00,61.3,51.5,30.28,NNE,28,3.0,5.0,70,0.00,CLR,,0.00,WeatherDisplay:10.37,2013-07-14 03:09:00,
2013-07-14 13:14:00,61.3,51.1,30.28,North,0,3.0,5.0,69,0.00,CLR,,0.00,WeatherDisplay:10.37,2013-07-14 03:14:00,
2013-07-14 13:19:00,61.4,50.7,30.28,NNE,23,0.0,3.0,68,0.00,CLR,,0.00,WeatherDisplay:10.37,2013-07-14 03:19:00,
2013-07-14 13:24:00,61.3,50.7,30.28,ENE,70,1.0,2.0,68,0.00,CLR,,0.00,WeatherDisplay:10.37,2013-07-14 03:24:00,
2013-07-14 13:29:00,61.3,50.3,30.28,NE,44,2.0,5.0,67,0.00,CLR,,0.00,WeatherDisplay:10.37,2013-07-14 03:29:00,
2013-07-14 13:34:00,61.3,50.3,30.27,NNE,18,2.0,4.0,67,0.00,CLR,,0.00,WeatherDisplay:10.37,2013-07-14 03:34:00,
2013-07-14 13:39:00,61.5,50.5,30.27,NE,39,0.0,3.0,67,0.00,CLR,,0.00,WeatherDisplay:10.37,2013-07-14 03:39:00,
2013-07-14 16:10:00,60.4,51.7,30.25,NE,38,1.0,4.0,73,0.00,CLR,,0.00,WeatherDisplay:10.37,2013-07-14 06:10:00,
2013-07-14 16:15:00,60.4,51.7,30.25,NNE,22,2.0,3.0,73,0.00,CLR,,0.00,WeatherDisplay:10.37,2013-07-14 06:15:00,
2013-07-14 16:20:00,60.1,51.8,30.25,NE,39,1.0,3.0,74,0.00,CLR,,0.00,WeatherDisplay:10.37,2013-07-14 06:20:00,
2013-07-14 16:25:00,60.0,51.7,30.26,ENE,70,1.0,3.0,74,0.00,CLR,,0.00,WeatherDisplay:10.37,2013-07-14 06:25:00,
2013-07-14 16:30:00,59.9,52.0,30.25,ENE,66,0.0,2.0,75,0.00,CLR,,0.00,WeatherDisplay:10.37,2013-07-14 06:30:00,
2013-07-14 16:35:00,59.7,51.8,30.26,ENE,67,0.0,0.0,75,0.00,CLR,,0.00,WeatherDisplay:10.37,2013-07-14 06:35:00,
2013-07-14 16:40:00,59.5,51.6,30.26,NE,55,0.0,0.0,75,0.00,CLR,,0.00,WeatherDisplay:10.37,2013-07-14 06:40:00,
2013-07-14 16:45:00,59.4,51.8,30.26,NE,55,0.0,0.0,76,0.00,CLR,,0.00,WeatherDisplay:10.37,2013-07-14 06:45:00,
2013-07-14 16:50:00,59.0,51.8,30.26,ENE,77,0.0,0.0,77,0.00,CLR,,0.00,WeatherDisplay:10.37,2013-07-14 06:50:00,
2013-07-14 16:55:00,58.8,51.6,30.26,East,82,0.0,0.0,77,0.00,CLR,,0.00,WeatherDisplay:10.37,2013-07-14 06:55:00,
2013-07-14 17:00:00,58.6,51.4,30.26,NNE,26,0.0,0.0,77,0.00,CLR,,0.00,WeatherDisplay:10.37,2013-07-14 07:00:00,
2013-07-14 17:05:00,58.3,51.4,30.26,NNW,331,0.0,0.0,78,0.00,CLR,,0.00,WeatherDisplay:10.37,2013-07-14 07:05:00,
2013-07-14 17:10:00,58.1,51.3,30.26,NW,306,0.0,0.0,78,0.00,CLR,,0.00,WeatherDisplay:10.37,2013-07-14 07:10:00,
2013-07-14 17:15:00,57.9,51.1,30.26,NW,311,0.0,0.0,78,0.00,CLR,,0.00,WeatherDisplay:10.37,2013-07-14 07:15:00,
2013-07-14 17:20:00,57.7,51.3,30.26,NNW,337,0.0,0.0,79,0.00,CLR,,0.00,WeatherDisplay:10.37,2013-07-14 07:20:00,
2013-07-14 17:25:00,57.7,51.3,30.26,North,349,0.0,1.0,79,0.00,CLR,,0.00,WeatherDisplay:10.37,2013-07-14 07:25:00,
2013-07-14 17:30:00,57.6,51.1,30.26,North,358,0.0,1.0,79,0.00,CLR,,0.00,WeatherDisplay:10.37,2013-07-14 07:30:00,
2013-07-14 17:35:00,57.4,50.9,30.26,North,350,0.0,1.0,79,0.00,CLR,,0.00,WeatherDisplay:10.37,2013-07-14 07:35:00,
2013-07-14 17:40:00,57.4,50.9,30.26,NNW,340,0.0,1.0,79,0.00,CLR,,0.00,WeatherDisplay:10.37,2013-07-14 07:40:00,
2013-07-14 17:45:00,57.0,50.6,30.26,NW,326,0.0,0.0,79,0.00,CLR,,0.00,WeatherDisplay:10.37,2013-07-14 07:45:00,
2013-07-14 17:50:00,57.0,50.9,30.26,North,357,0.0,0.0,80,0.00,CLR,,0.00,WeatherDisplay:10.37,2013-07-14 07:50:00,
2013-07-14 17:55:00,56.8,50.7,30.26,NE,46,0.0,0.0,80,0.00,CLR,,0.00,WeatherDisplay:10.37,2013-07-14 07:55:00,
2013-07-14 18:00:00,56.6,50.5,30.26,NNE,26,0.0,0.0,80,0.00,CLR,,0.00,WeatherDisplay:10.37,2013-07-14 08:00:00,
2013-07-14 18:05:00,56.4,50.3,30.27,NW,324,0.0,0.0,80,0.00,CLR,,0.00,WeatherDisplay:10.37,2013-07-14 08:05:00,
2013-07-14 18:10:00,56.1,50.4,30.27,WNW,284,0.0,1.0,81,0.00,CLR,,0.00,WeatherDisplay:10.37,2013-07-14 08:10:00,
2013-07-14 18:15:00,55.9,50.2,30.27,NW,314,0.0,0.0,81,0.00,CLR,,0.00,WeatherDisplay:10.37,2013-07-14 08:15:00,
2013-07-14 18:20:00,55.9,50.2,30.27,NW,321,0.0,0.0,81,0.00,CLR,,0.00,WeatherDisplay:10.37,2013-07-14 08:20:00,
2013-07-14 18:25:00,55.9,50.5,30.28,NNW,345,0.0,1.0,82,0.00,CLR,,0.00,WeatherDisplay:10.37,2013-07-14 08:25:00,
2013-07-14 18:30:00,55.8,50.3,30.27,North,353,0.0,1.0,82,0.00,CLR,,0.00,WeatherDisplay:10.37,2013-07-14 08:30:00,
2013-07-14 18:35:00,55.6,49.8,30.27,NNW,343,0.0,0.0,81,0.00,CLR,,0.00,WeatherDisplay:10.37,2013-07-14 08:35:00,
2013-07-14 18:40:00,55.2,49.5,30.27,NNW,339,0.0,0.0,81,0.00,CLR,,0.00,WeatherDisplay:10.37,2013-07-14 08:40:00,
2013-07-14 18:45:00,55.2,49.8,30.27,NNW,338,0.0,0.0,82,0.00,CLR,,0.00,WeatherDisplay:10.37,2013-07-14 08:45:00,
2013-07-14 18:50:00,55.2,49.8,30.27,NNW,333,0.0,0.0,82,0.00,CLR,,0.00,WeatherDisplay:10.37,2013-07-14 08:50:00,
2013-07-14 18:55:00,55.0,49.6,30.27,NNW,335,0.0,0.0,82,0.00,CLR,,0.00,WeatherDisplay:10.37,2013-07-14 08:55:00,
2013-07-14 19:00:00,54.7,49.3,30.28,NNW,338,0.0,0.0,82,0.00,CLR,,0.00,WeatherDisplay:10.37,2013-07-14 09:00:00,
2013-07-14 19:05:00,54.6,49.2,30.27,NNW,337,0.0,0.0,82,0.00,CLR,,0.00,WeatherDisplay:10.37,2013-07-14 09:05:00,
2013-07-14 19:10:00,54.4,49.0,30.28,NNW,334,0.0,0.0,82,0.00,CLR,,0.00,WeatherDisplay:10.37,2013-07-14 09:10:00,
2013-07-14 19:15:00,54.3,48.9,30.28,NNW,334,0.0,0.0,82,0.00,CLR,,0.00,WeatherDisplay:10.37,2013-07-14 09:15:00,
2013-07-14 19:20:00,54.3,48.9,30.28,NNW,341,0.0,0.0,82,0.00,CLR,,0.00,WeatherDisplay:10.37,2013-07-14 09:20:00,
2013-07-14 19:25:00,54.1,48.8,30.28,NNW,344,0.0,0.0,82,0.00,CLR,,0.00,WeatherDisplay:10.37,2013-07-14 09:25:00,
2013-07-14 19:30:00,54.1,48.8,30.28,NNW,340,0.0,0.0,82,0.00,CLR,,0.00,WeatherDisplay:10.37,2013-07-14 09:30:00,
2013-07-14 19:35:00,54.1,48.8,30.28,NNW,339,0.0,0.0,82,0.00,CLR,,0.00,WeatherDisplay:10.37,2013-07-14 09:35:00,
2013-07-14 19:40:00,53.8,48.4,30.28,NNW,339,0.0,0.0,82,0.00,CLR,,0.00,WeatherDisplay:10.37,2013-07-14 09:40:00,
2013-07-14 19:45:00,53.8,48.4,30.27,NNW,339,0.0,0.0,82,0.00,CLR,,0.00,WeatherDisplay:10.37,2013-07-14 09:45:00,
2013-07-14 19:50:00,53.8,48.7,30.27,NNW,339,0.0,0.0,83,0.00,CLR,,0.00,WeatherDisplay:10.37,2013-07-14 09:50:00,
2013-07-14 19:55:00,53.8,48.7,30.27,NNW,339,0.0,0.0,83,0.00,CLR,,0.00,WeatherDisplay:10.37,2013-07-14 09:55:00,
2013-07-14 20:00:00,53.6,48.6,30.27,NNW,344,0.0,0.0,83,0.00,CLR,,0.00,WeatherDisplay:10.37,2013-07-14 10:00:00,
2013-07-14 20:05:00,53.4,48.4,30.27,NNW,348,0.0,0.0,83,0.00,CLR,,0.00,WeatherDisplay:10.37,2013-07-14 10:05:00,
2013-07-14 20:10:00,53.4,48.4,30.28,NNW,344,0.0,0.0,83,0.00,CLR,,0.00,WeatherDisplay:10.37,2013-07-14 10:10:00,
2013-07-14 20:15:00,53.2,48.2,30.27,NNW,342,0.0,0.0,83,0.00,CLR,,0.00,WeatherDisplay:10.37,2013-07-14 10:15:00,
2013-07-14 20:20:00,53.2,48.2,30.28,NNW,341,0.0,0.0,83,0.00,CLR,,0.00,WeatherDisplay:10.37,2013-07-14 10:20:00,
2013-07-14 20:25:00,53.2,48.2,30.28,NNW,339,0.0,0.0,83,0.00,CLR,,0.00,WeatherDisplay:10.37,2013-07-14 10:25:00,
2013-07-14 20:30:00,53.2,48.2,30.28,NNW,339,0.0,0.0,83,0.00,CLR,,0.00,WeatherDisplay:10.37,2013-07-14 10:30:00,
2013-07-14 20:35:00,53.1,48.0,30.28,NNW,338,0.0,0.0,83,0.00,CLR,,0.00,WeatherDisplay:10.37,2013-07-14 10:35:00,
2013-07-14 20:40:00,53.2,48.2,30.28,NNW,337,0.0,0.0,83,0.00,CLR,,0.00,WeatherDisplay:10.37,2013-07-14 10:40:00,
2013-07-14 20:45:00,53.2,48.1,30.28,NNW,340,0.0,0.0,83,0.00,CLR,,0.00,WeatherDisplay:10.37,2013-07-14 10:45:00,
2013-07-14 20:50:00,52.9,47.9,30.28,NNW,342,0.0,0.0,83,0.00,CLR,,0.00,WeatherDisplay:10.37,2013-07-14 10:50:00,
2013-07-14 20:55:00,52.9,47.9,30.28,NNW,342,0.0,0.0,83,0.00,CLR,,0.00,WeatherDisplay:10.37,2013-07-14 10:55:00,
2013-07-14 21:00:00,52.9,47.9,30.27,NNW,342,0.0,0.0,83,0.00,CLR,,0.00,WeatherDisplay:10.37,2013-07-14 11:00:00,
2013-07-14 21:05:00,52.9,47.9,30.27,NNW,342,0.0,0.0,83,0.00,CLR,,0.00,WeatherDisplay:10.37,2013-07-14 11:05:00,
2013-07-14 21:10:00,52.7,47.7,30.27,NNW,341,0.0,0.0,83,0.00,CLR,,0.00,WeatherDisplay:10.37,2013-07-14 11:10:00,
2013-07-14 21:15:00,52.7,47.7,30.27,NW,321,0.0,0.0,83,0.00,CLR,,0.00,WeatherDisplay:10.37,2013-07-14 11:15:00,
2013-07-14 21:20:00,52.9,47.9,30.27,NNW,327,0.0,0.0,83,0.00,CLR,,0.00,WeatherDisplay:10.37,2013-07-14 11:20:00,
2013-07-14 21:25:00,52.8,47.8,30.27,NNW,344,0.0,0.0,83,0.00,CLR,,0.00,WeatherDisplay:10.37,2013-07-14 11:25:00,
2013-07-14 21:30:00,52.7,47.7,30.27,North,356,0.0,0.0,83,0.00,CLR,,0.00,WeatherDisplay:10.37,2013-07-14 11:30:00,
2013-07-14 21:34:00,52.7,47.7,30.27,NNW,343,0.0,1.0,83,0.00,CLR,,0.00,WeatherDisplay:10.37,2013-07-14 11:34:00,
2013-07-14 21:40:00,52.7,47.7,30.27,NW,312,1.0,3.0,83,0.00,CLR,,0.00,WeatherDisplay:10.37,2013-07-14 11:40:00,
2013-07-14 21:45:00,52.7,48.0,30.27,NW,319,1.0,1.0,84,0.00,CLR,,0.00,WeatherDisplay:10.37,2013-07-14 11:45:00,
2013-07-14 21:50:00,52.9,48.2,30.27,NNW,341,0.0,0.0,84,0.00,CLR,,0.00,WeatherDisplay:10.37,2013-07-14 11:50:00,
2013-07-14 21:55:00,52.8,48.1,30.27,North,351,0.0,0.0,84,0.00,CLR,,0.00,WeatherDisplay:10.37,2013-07-14 11:55:00,
2013-07-14 22:00:00,52.9,48.2,30.27,North,358,0.0,0.0,84,0.00,CLR,,0.00,WeatherDisplay:10.37,2013-07-14 12:00:00,
2013-07-14 22:05:00,52.7,48.0,30.27,North,1,0.0,0.0,84,0.00,CLR,,0.00,WeatherDisplay:10.37,2013-07-14 12:05:00,
2013-07-14 22:10:00,52.7,48.0,30.26,NE,41,0.0,0.0,84,0.00,CLR,,0.00,WeatherDisplay:10.37,2013-07-14 12:10:00,
2013-07-14 22:15:00,52.5,47.8,30.26,ENE,70,0.0,0.0,84,0.00,CLR,,0.00,WeatherDisplay:10.37,2013-07-14 12:15:00,
2013-07-14 22:19:00,52.5,47.8,30.27,ENE,72,0.0,0.0,84,0.00,CLR,,0.00,WeatherDisplay:10.37,2013-07-14 12:19:00,
2013-07-14 22:25:00,52.3,47.6,30.26,NW,317,0.0,0.0,84,0.00,CLR,,0.00,WeatherDisplay:10.37,2013-07-14 12:25:00,
2013-07-14 22:30:00,52.4,47.7,30.26,WNW,284,0.0,0.0,84,0.00,CLR,,0.00,WeatherDisplay:10.37,2013-07-14 12:30:00,
2013-07-14 22:35:00,52.5,48.1,30.27,WNW,284,0.0,0.0,85,0.00,CLR,,0.00,WeatherDisplay:10.37,2013-07-14 12:35:00,
2013-07-14 22:39:00,52.5,48.1,30.27,WNW,295,0.0,0.0,85,0.00,CLR,,0.00,WeatherDisplay:10.37,2013-07-14 12:39:00,
2013-07-14 22:45:00,52.5,48.1,30.26,North,350,0.0,0.0,85,0.00,CLR,,0.00,WeatherDisplay:10.37,2013-07-14 12:45:00,
2013-07-14 22:50:00,52.6,48.2,30.26,NNE,12,0.0,0.0,85,0.00,CLR,,0.00,WeatherDisplay:10.37,2013-07-14 12:50:00,
2013-07-14 22:55:00,52.6,48.2,30.26,NNE,13,0.0,0.0,85,0.00,CLR,,0.00,WeatherDisplay:10.37,2013-07-14 12:55:00,
2013-07-14 22:59:00,52.5,48.1,30.26,NNE,23,0.0,0.0,85,0.00,CLR,,0.00,WeatherDisplay:10.37,2013-07-14 12:59:00,
2013-07-14 23:04:00,52.5,48.1,30.26,NNW,342,0.0,0.0,85,0.00,CLR,,0.00,WeatherDisplay:10.37,2013-07-14 13:04:00,
2013-07-14 23:10:00,52.3,48.0,30.26,WNW,302,0.0,0.0,85,0.00,CLR,,0.00,WeatherDisplay:10.37,2013-07-14 13:10:00,
2013-07-14 23:15:00,52.5,48.1,30.26,NE,35,0.0,0.0,85,0.00,CLR,,0.00,WeatherDisplay:10.37,2013-07-14 13:15:00,
2013-07-14 23:20:00,52.5,48.1,30.26,East,93,0.0,0.0,85,0.00,CLR,,0.00,WeatherDisplay:10.37,2013-07-14 13:20:00,
2013-07-14 23:24:00,52.5,48.1,30.26,ESE,121,0.0,0.0,85,0.00,CLR,,0.00,WeatherDisplay:10.37,2013-07-14 13:24:00,
2013-07-14 23:29:00,52.5,48.1,30.26,SSE,160,0.0,1.0,85,0.00,CLR,,0.00,WeatherDisplay:10.37,2013-07-14 13:29:00,
2013-07-14 23:35:00,52.3,48.0,30.26,SSW,203,0.0,0.0,85,0.00,CLR,,0.00,WeatherDisplay:10.37,2013-07-14 13:35:00,
2013-07-14 23:40:00,52.3,48.0,30.25,WSW,256,0.0,0.0,85,0.00,CLR,,0.00,WeatherDisplay:10.37,2013-07-14 13:40:00,
2013-07-14 23:44:00,52.3,48.0,30.25,NNW,330,0.0,7.0,85,0.00,CLR,,0.00,WeatherDisplay:10.37,2013-07-14 13:44:00,
2013-07-14 23:49:00,52.3,48.0,30.25,NE,42,0.0,7.0,85,0.00,CLR,,0.00,WeatherDisplay:10.37,2013-07-14 13:49:00,
2013-07-14 23:54:00,52.3,48.0,30.25,ENE,74,0.0,0.0,85,0.00,CLR,,0.00,WeatherDisplay:10.37,2013-07-14 13:54:00,